sensor_id;sensor_type;location;lat;lon;timestamp;pressure;altitude;pressure_sealevel;temperature;humidity
52927;BME280;40783;49.710;8.842;2022-08-03T00:00:39;99161.91;;;20.68;58.20
52927;BME280;40783;49.710;8.842;2022-08-03T00:03:09;99159.06;;;20.63;58.10
52927;BME280;40783;49.710;8.842;2022-08-03T00:05:46;99156.56;;;20.61;57.80
52927;BME280;40783;49.710;8.842;2022-08-03T00:08:11;99158.63;;;20.66;58.24
52927;BME280;40783;49.710;8.842;2022-08-03T00:10:48;99161.19;;;20.60;57.87
52927;BME280;40783;49.710;8.842;2022-08-03T00:13:13;99162.06;;;20.54;58.22
52927;BME280;40783;49.710;8.842;2022-08-03T00:15:39;99156.22;;;20.51;58.28
52927;BME280;40783;49.710;8.842;2022-08-03T00:18:07;99158.75;;;20.52;58.46
52927;BME280;40783;49.710;8.842;2022-08-03T00:20:33;99154.97;;;20.53;58.39
52927;BME280;40783;49.710;8.842;2022-08-03T00:22:59;99154.19;;;20.46;58.91
52927;BME280;40783;49.710;8.842;2022-08-03T00:25:24;99154.63;;;20.43;58.91
52927;BME280;40783;49.710;8.842;2022-08-03T00:27:54;99154.63;;;20.43;58.69
52927;BME280;40783;49.710;8.842;2022-08-03T00:30:20;99150.88;;;20.44;59.00
52927;BME280;40783;49.710;8.842;2022-08-03T00:32:45;99145.50;;;20.37;58.97
52927;BME280;40783;49.710;8.842;2022-08-03T00:35:13;99149.50;;;20.35;58.92
52927;BME280;40783;49.710;8.842;2022-08-03T00:37:38;99145.09;;;20.34;58.94
52927;BME280;40783;49.710;8.842;2022-08-03T00:40:04;99150.53;;;20.34;58.87
52927;BME280;40783;49.710;8.842;2022-08-03T00:42:32;99150.53;;;20.34;58.99
52927;BME280;40783;49.710;8.842;2022-08-03T00:44:57;99148.88;;;20.33;58.75
52927;BME280;40783;49.710;8.842;2022-08-03T00:47:22;99138.53;;;20.23;58.88
52927;BME280;40783;49.710;8.842;2022-08-03T00:49:50;99139.78;;;20.20;59.37
52927;BME280;40783;49.710;8.842;2022-08-03T00:52:15;99140.22;;;20.17;59.24
52927;BME280;40783;49.710;8.842;2022-08-03T00:54:41;99147.75;;;20.15;59.65
52927;BME280;40783;49.710;8.842;2022-08-03T00:57:06;99137.38;;;20.12;59.15
52927;BME280;40783;49.710;8.842;2022-08-03T00:59:32;99138.44;;;20.11;59.59
52927;BME280;40783;49.710;8.842;2022-08-03T01:01:58;99137.81;;;20.09;59.68
52927;BME280;40783;49.710;8.842;2022-08-03T01:04:26;99142.03;;;20.05;59.85
52927;BME280;40783;49.710;8.842;2022-08-03T01:06:57;99139.50;;;20.03;59.73
52927;BME280;40783;49.710;8.842;2022-08-03T01:10:18;99139.75;;;20.01;59.61
52927;BME280;40783;49.710;8.842;2022-08-03T01:12:49;99140.38;;;19.97;60.30
52927;BME280;40783;49.710;8.842;2022-08-03T01:18:06;99138.72;;;19.96;60.20
52927;BME280;40783;49.710;8.842;2022-08-03T01:20:40;99130.59;;;19.96;60.07
52927;BME280;40783;49.710;8.842;2022-08-03T01:31:12;99130.66;;;19.89;60.37
52927;BME280;40783;49.710;8.842;2022-08-03T01:33:46;99128.75;;;19.90;60.39
52927;BME280;40783;49.710;8.842;2022-08-03T01:36:21;99130.81;;;19.87;60.58
52927;BME280;40783;49.710;8.842;2022-08-03T01:38:51;99123.75;;;19.86;60.69
52927;BME280;40783;49.710;8.842;2022-08-03T01:41:21;99132.53;;;19.82;60.51
52927;BME280;40783;49.710;8.842;2022-08-03T01:43:49;99120.06;;;19.74;60.64
52927;BME280;40783;49.710;8.842;2022-08-03T01:46:17;99124.03;;;19.71;60.36
52927;BME280;40783;49.710;8.842;2022-08-03T01:48:47;99116.34;;;19.68;60.67
52927;BME280;40783;49.710;8.842;2022-08-03T01:51:15;99124.28;;;19.70;60.96
52927;BME280;40783;49.710;8.842;2022-08-03T01:53:43;99125.53;;;19.67;60.87
52927;BME280;40783;49.710;8.842;2022-08-03T01:56:11;99121.59;;;19.63;60.93
52927;BME280;40783;49.710;8.842;2022-08-03T01:58:39;99114.69;;;19.67;60.79
52927;BME280;40783;49.710;8.842;2022-08-03T02:01:05;99107.41;;;19.61;61.24
52927;BME280;40783;49.710;8.842;2022-08-03T02:03:38;99112.25;;;19.59;61.12
52927;BME280;40783;49.710;8.842;2022-08-03T02:06:09;99114.81;;;19.47;61.24
52927;BME280;40783;49.710;8.842;2022-08-03T02:08:37;99109.19;;;19.49;60.96
52927;BME280;40783;49.710;8.842;2022-08-03T02:11:05;99113.31;;;19.51;61.00
52927;BME280;40783;49.710;8.842;2022-08-03T02:13:33;99104.13;;;19.52;61.31
52927;BME280;40783;49.710;8.842;2022-08-03T02:16:00;99104.38;;;19.51;61.41
52927;BME280;40783;49.710;8.842;2022-08-03T02:18:27;99112.06;;;19.54;61.53
52927;BME280;40783;49.710;8.842;2022-08-03T02:20:54;99115.22;;;19.51;61.80
52927;BME280;40783;49.710;8.842;2022-08-03T02:23:22;99111.03;;;19.48;61.49
52927;BME280;40783;49.710;8.842;2022-08-03T02:25:50;99109.38;;;19.47;61.67
52927;BME280;40783;49.710;8.842;2022-08-03T02:28:19;99103.13;;;19.47;61.70
52927;BME280;40783;49.710;8.842;2022-08-03T02:30:49;99096.50;;;19.42;61.79
52927;BME280;40783;49.710;8.842;2022-08-03T02:33:21;99105.06;;;19.39;61.95
52927;BME280;40783;49.710;8.842;2022-08-03T02:35:50;99099.03;;;19.37;62.17
52927;BME280;40783;49.710;8.842;2022-08-03T02:38:23;99106.53;;;19.35;61.91
52927;BME280;40783;49.710;8.842;2022-08-03T02:40:52;99099.25;;;19.29;62.36
52927;BME280;40783;49.710;8.842;2022-08-03T02:43:20;99099.69;;;19.26;62.43
52927;BME280;40783;49.710;8.842;2022-08-03T02:45:50;99101.78;;;19.24;61.67
52927;BME280;40783;49.710;8.842;2022-08-03T02:48:20;99101.19;;;19.22;62.08
52927;BME280;40783;49.710;8.842;2022-08-03T02:50:50;99095.31;;;19.25;62.23
52927;BME280;40783;49.710;8.842;2022-08-03T02:53:20;99097.00;;;19.26;62.34
52927;BME280;40783;49.710;8.842;2022-08-03T02:55:47;99099.69;;;19.26;61.93
52927;BME280;40783;49.710;8.842;2022-08-03T02:58:17;99109.94;;;19.24;62.18
52927;BME280;40783;49.710;8.842;2022-08-03T03:00:45;99104.31;;;19.19;62.40
52927;BME280;40783;49.710;8.842;2022-08-03T03:03:12;99091.28;;;19.02;64.61
52927;BME280;40783;49.710;8.842;2022-08-03T03:05:39;99093.38;;;19.00;62.80
52927;BME280;40783;49.710;8.842;2022-08-03T03:08:05;99095.22;;;19.06;62.78
52927;BME280;40783;49.710;8.842;2022-08-03T03:10:34;99092.94;;;19.03;62.42
52927;BME280;40783;49.710;8.842;2022-08-03T03:13:04;99093.38;;;19.00;63.04
52927;BME280;40783;49.710;8.842;2022-08-03T03:15:30;99089.63;;;19.01;62.65
52927;BME280;40783;49.710;8.842;2022-08-03T03:18:02;99099.22;;;18.97;62.91
52927;BME280;40783;49.710;8.842;2022-08-03T03:20:28;99097.09;;;18.92;63.09
52927;BME280;40783;49.710;8.842;2022-08-03T03:22:54;99097.56;;;18.96;63.05
52927;BME280;40783;49.710;8.842;2022-08-03T03:25:21;99096.50;;;18.97;62.95
52927;BME280;40783;49.710;8.842;2022-08-03T03:27:49;99096.47;;;18.90;63.12
52927;BME280;40783;49.710;8.842;2022-08-03T03:30:15;99097.13;;;18.86;63.50
52927;BME280;40783;49.710;8.842;2022-08-03T03:32:40;99103.38;;;18.93;62.85
52927;BME280;40783;49.710;8.842;2022-08-03T03:35:09;99097.75;;;18.88;63.05
52927;BME280;40783;49.710;8.842;2022-08-03T03:37:35;99094.63;;;18.91;63.32
52927;BME280;40783;49.710;8.842;2022-08-03T03:40:01;99097.34;;;18.91;63.35
52927;BME280;40783;49.710;8.842;2022-08-03T03:42:28;99096.28;;;18.92;63.28
52927;BME280;40783;49.710;8.842;2022-08-03T03:44:54;99100.03;;;18.91;63.56
52927;BME280;40783;49.710;8.842;2022-08-03T03:50:03;99097.56;;;18.82;63.65
52927;BME280;40783;49.710;8.842;2022-08-03T03:52:36;99105.06;;;18.80;63.54
52927;BME280;40783;49.710;8.842;2022-08-03T03:55:14;99100.50;;;18.74;63.89
52927;BME280;40783;49.710;8.842;2022-08-03T03:57:47;99104.69;;;18.77;64.14
52927;BME280;40783;49.710;8.842;2022-08-03T04:00:16;99103.84;;;18.76;64.80
52927;BME280;40783;49.710;8.842;2022-08-03T04:02:45;99102.16;;;18.75;63.86
52927;BME280;40783;49.710;8.842;2022-08-03T04:05:14;99096.13;;;18.73;64.40
52927;BME280;40783;49.710;8.842;2022-08-03T04:08:20;99091.75;;;18.72;63.56
52927;BME280;40783;49.710;8.842;2022-08-03T04:11:31;99088.00;;;18.73;64.23
52927;BME280;40783;49.710;8.842;2022-08-03T04:14:05;99097.59;;;18.69;63.94
52927;BME280;40783;49.710;8.842;2022-08-03T04:16:37;99100.31;;;18.69;64.05
52927;BME280;40783;49.710;8.842;2022-08-03T04:19:09;99088.03;;;18.66;64.14
52927;BME280;40783;49.710;8.842;2022-08-03T04:21:39;99094.69;;;18.64;63.76
52927;BME280;40783;49.710;8.842;2022-08-03T04:24:07;99100.09;;;18.64;63.71
52927;BME280;40783;49.710;8.842;2022-08-03T04:26:36;99095.53;;;18.64;63.91
52927;BME280;40783;49.710;8.842;2022-08-03T04:29:04;99101.38;;;18.61;64.15
52927;BME280;40783;49.710;8.842;2022-08-03T04:31:31;99102.19;;;18.62;64.47
52927;BME280;40783;49.710;8.842;2022-08-03T04:33:57;99100.97;;;18.64;63.91
52927;BME280;40783;49.710;8.842;2022-08-03T04:36:31;99105.53;;;18.64;64.38
52927;BME280;40783;49.710;8.842;2022-08-03T04:39:04;99113.22;;;18.67;64.77
52927;BME280;40783;49.710;8.842;2022-08-03T04:41:33;99112.41;;;18.66;64.82
52927;BME280;40783;49.710;8.842;2022-08-03T04:43:59;99104.69;;;18.70;64.60
52927;BME280;40783;49.710;8.842;2022-08-03T04:46:30;99112.81;;;18.70;65.29
52927;BME280;40783;49.710;8.842;2022-08-03T04:48:57;99114.06;;;18.67;64.74
52927;BME280;40783;49.710;8.842;2022-08-03T04:51:25;99111.13;;;18.69;64.80
52927;BME280;40783;49.710;8.842;2022-08-03T04:53:53;99110.09;;;18.70;64.72
52927;BME280;40783;49.710;8.842;2022-08-03T04:56:19;99117.19;;;18.71;65.09
52927;BME280;40783;49.710;8.842;2022-08-03T04:58:44;99120.94;;;18.70;64.94
52927;BME280;40783;49.710;8.842;2022-08-03T05:01:12;99115.09;;;18.73;64.51
52927;BME280;40783;49.710;8.842;2022-08-03T05:03:40;99119.25;;;18.76;64.32
52927;BME280;40783;49.710;8.842;2022-08-03T05:06:05;99115.28;;;18.78;64.54
52927;BME280;40783;49.710;8.842;2022-08-03T05:08:31;99116.75;;;18.81;64.02
52927;BME280;40783;49.710;8.842;2022-08-03T05:10:56;99120.91;;;18.83;64.37
52927;BME280;40783;49.710;8.842;2022-08-03T05:13:22;99104.22;;;18.87;64.96
52927;BME280;40783;49.710;8.842;2022-08-03T05:15:47;99103.78;;;18.90;64.04
52927;BME280;40783;49.710;8.842;2022-08-03T05:18:16;99111.75;;;18.71;67.79
52927;BME280;40783;49.710;8.842;2022-08-03T05:20:41;99106.78;;;18.75;64.66
52927;BME280;40783;49.710;8.842;2022-08-03T05:23:06;99111.31;;;18.88;66.53
52927;BME280;40783;49.710;8.842;2022-08-03T05:25:34;99110.88;;;18.97;65.17
52927;BME280;40783;49.710;8.842;2022-08-03T05:27:59;99107.13;;;19.05;67.56
52927;BME280;40783;49.710;8.842;2022-08-03T05:30:25;99106.66;;;19.08;68.38
52927;BME280;40783;49.710;8.842;2022-08-03T05:32:50;99104.16;;;19.07;68.00
52927;BME280;40783;49.710;8.842;2022-08-03T05:35:17;99114.53;;;19.17;66.48
52927;BME280;40783;49.710;8.842;2022-08-03T05:37:45;99117.44;;;19.22;69.22
52927;BME280;40783;49.710;8.842;2022-08-03T05:40:10;99108.19;;;19.36;69.27
52927;BME280;40783;49.710;8.842;2022-08-03T05:42:36;99110.63;;;19.51;67.92
52927;BME280;40783;49.710;8.842;2022-08-03T05:45:05;99113.00;;;19.66;62.90
52927;BME280;40783;49.710;8.842;2022-08-03T05:50:09;99104.72;;;19.93;62.08
52927;BME280;40783;49.710;8.842;2022-08-03T05:52:35;99113.81;;;20.06;62.65
52927;BME280;40783;49.710;8.842;2022-08-03T05:55:05;99107.44;;;20.19;61.83
52927;BME280;40783;49.710;8.842;2022-08-03T05:57:33;99116.69;;;20.36;63.92
52927;BME280;40783;49.710;8.842;2022-08-03T06:00:09;99110.91;;;20.51;65.99
52927;BME280;40783;49.710;8.842;2022-08-03T06:02:35;99105.91;;;20.67;62.40
52927;BME280;40783;49.710;8.842;2022-08-03T06:05:00;99111.06;;;20.75;62.95
52927;BME280;40783;49.710;8.842;2022-08-03T06:07:26;99118.94;;;21.02;64.11
52927;BME280;40783;49.710;8.842;2022-08-03T06:09:51;99120.00;;;21.19;61.62
52927;BME280;40783;49.710;8.842;2022-08-03T06:12:17;99122.19;;;21.41;61.73
52927;BME280;40783;49.710;8.842;2022-08-03T06:14:44;99117.25;;;21.69;63.43
52927;BME280;40783;49.710;8.842;2022-08-03T06:17:10;99109.63;;;22.01;63.30
52927;BME280;40783;49.710;8.842;2022-08-03T06:19:35;99112.72;;;22.41;60.35
52927;BME280;40783;49.710;8.842;2022-08-03T06:22:01;99119.84;;;22.65;60.48
52927;BME280;40783;49.710;8.842;2022-08-03T06:24:26;99120.75;;;22.83;59.68
52927;BME280;40783;49.710;8.842;2022-08-03T06:26:54;99114.94;;;22.91;57.76
52927;BME280;40783;49.710;8.842;2022-08-03T06:29:21;99111.94;;;23.05;56.69
52927;BME280;40783;49.710;8.842;2022-08-03T06:31:49;99105.84;;;23.15;57.89
52927;BME280;40783;49.710;8.842;2022-08-03T06:34:15;99112.44;;;23.02;57.67
52927;BME280;40783;49.710;8.842;2022-08-03T06:36:42;99111.03;;;22.87;56.46
52927;BME280;40783;49.710;8.842;2022-08-03T06:39:08;99109.81;;;23.07;55.03
52927;BME280;40783;49.710;8.842;2022-08-03T06:41:33;99112.16;;;23.15;52.98
52927;BME280;40783;49.710;8.842;2022-08-03T06:43:59;99111.41;;;23.32;53.75
52927;BME280;40783;49.710;8.842;2022-08-03T06:46:24;99109.34;;;23.39;55.55
52927;BME280;40783;49.710;8.842;2022-08-03T06:48:50;99110.81;;;23.59;54.50
52927;BME280;40783;49.710;8.842;2022-08-03T06:51:18;99118.22;;;23.75;53.25
52927;BME280;40783;49.710;8.842;2022-08-03T06:53:43;99118.66;;;24.01;51.88
52927;BME280;40783;49.710;8.842;2022-08-03T06:56:08;99112.38;;;24.18;52.60
52927;BME280;40783;49.710;8.842;2022-08-03T06:58:34;99117.16;;;24.27;51.14
52927;BME280;40783;49.710;8.842;2022-08-03T07:01:02;99115.53;;;24.26;53.60
52927;BME280;40783;49.710;8.842;2022-08-03T07:03:30;99123.97;;;24.25;55.41
52927;BME280;40783;49.710;8.842;2022-08-03T07:05:55;99121.75;;;24.61;52.94
52927;BME280;40783;49.710;8.842;2022-08-03T07:08:23;99116.72;;;24.92;50.99
52927;BME280;40783;49.710;8.842;2022-08-03T07:10:51;99122.47;;;25.13;51.86
52927;BME280;40783;49.710;8.842;2022-08-03T07:13:19;99112.44;;;25.46;51.05
52927;BME280;40783;49.710;8.842;2022-08-03T07:15:44;99114.06;;;25.69;48.00
52927;BME280;40783;49.710;8.842;2022-08-03T07:18:09;99123.34;;;25.96;47.45
52927;BME280;40783;49.710;8.842;2022-08-03T07:20:40;99116.88;;;26.12;46.80
52927;BME280;40783;49.710;8.842;2022-08-03T07:23:06;99120.34;;;26.30;46.23
52927;BME280;40783;49.710;8.842;2022-08-03T07:25:34;99124.28;;;26.44;47.06
52927;BME280;40783;49.710;8.842;2022-08-03T07:28:02;99115.56;;;26.58;46.63
52927;BME280;40783;49.710;8.842;2022-08-03T07:30:30;99119.69;;;26.55;45.82
52927;BME280;40783;49.710;8.842;2022-08-03T07:32:59;99119.50;;;26.72;43.59
52927;BME280;40783;49.710;8.842;2022-08-03T07:35:25;99120.75;;;26.92;43.44
52927;BME280;40783;49.710;8.842;2022-08-03T07:37:50;99116.91;;;26.93;43.34
52927;BME280;40783;49.710;8.842;2022-08-03T07:40:16;99120.22;;;27.05;41.35
52927;BME280;40783;49.710;8.842;2022-08-03T07:42:41;99107.63;;;27.09;42.37
52927;BME280;40783;49.710;8.842;2022-08-03T07:45:07;99109.97;;;27.49;40.40
52927;BME280;40783;49.710;8.842;2022-08-03T07:47:33;99105.88;;;27.57;40.72
52927;BME280;40783;49.710;8.842;2022-08-03T07:49:59;99108.91;;;27.55;41.34
52927;BME280;40783;49.710;8.842;2022-08-03T07:52:24;99113.63;;;26.96;43.04
52927;BME280;40783;49.710;8.842;2022-08-03T07:55:10;99111.41;;;26.93;43.68
52927;BME280;40783;49.710;8.842;2022-08-03T07:57:36;99111.78;;;27.17;40.55
52927;BME280;40783;49.710;8.842;2022-08-03T08:00:06;99111.63;;;27.60;39.86
52927;BME280;40783;49.710;8.842;2022-08-03T08:02:35;99118.78;;;27.77;39.30
52927;BME280;40783;49.710;8.842;2022-08-03T08:05:03;99110.28;;;27.83;38.24
52927;BME280;40783;49.710;8.842;2022-08-03T08:07:28;99116.88;;;27.88;39.43
52927;BME280;40783;49.710;8.842;2022-08-03T08:09:54;99119.06;;;27.96;40.28
52927;BME280;40783;49.710;8.842;2022-08-03T08:12:19;99115.50;;;27.69;41.44
52927;BME280;40783;49.710;8.842;2022-08-03T08:14:47;99102.31;;;27.82;39.34
52927;BME280;40783;49.710;8.842;2022-08-03T08:17:13;99103.97;;;27.83;38.61
52927;BME280;40783;49.710;8.842;2022-08-03T08:19:41;99108.06;;;27.65;38.01
52927;BME280;40783;49.710;8.842;2022-08-03T08:22:06;99111.63;;;27.65;39.49
52927;BME280;40783;49.710;8.842;2022-08-03T08:24:31;99102.31;;;27.82;37.58
52927;BME280;40783;49.710;8.842;2022-08-03T08:26:58;99099.59;;;27.97;37.84
52927;BME280;40783;49.710;8.842;2022-08-03T08:29:25;99100.13;;;27.84;37.99
52927;BME280;40783;49.710;8.842;2022-08-03T08:31:51;99099.84;;;27.91;37.68
52927;BME280;40783;49.710;8.842;2022-08-03T08:34:19;99093.25;;;27.76;39.23
52927;BME280;40783;49.710;8.842;2022-08-03T08:36:44;99097.09;;;27.75;39.31
52927;BME280;40783;49.710;8.842;2022-08-03T08:39:09;99091.84;;;27.68;39.37
52927;BME280;40783;49.710;8.842;2022-08-03T08:41:37;99091.88;;;27.84;39.09
52927;BME280;40783;49.710;8.842;2022-08-03T08:44:03;99097.53;;;26.67;42.92
52927;BME280;40783;49.710;8.842;2022-08-03T08:46:32;99100.22;;;26.57;41.16
52927;BME280;40783;49.710;8.842;2022-08-03T08:48:58;99105.59;;;26.84;42.14
52927;BME280;40783;49.710;8.842;2022-08-03T08:51:27;99100.81;;;27.22;38.84
52927;BME280;40783;49.710;8.842;2022-08-03T08:53:55;99100.59;;;27.39;39.41
52927;BME280;40783;49.710;8.842;2022-08-03T08:56:24;99100.94;;;27.69;38.20
52927;BME280;40783;49.710;8.842;2022-08-03T08:58:55;99097.91;;;27.76;37.61
52927;BME280;40783;49.710;8.842;2022-08-03T09:01:22;99094.06;;;27.82;37.77
52927;BME280;40783;49.710;8.842;2022-08-03T09:03:50;99092.19;;;28.13;37.95
52927;BME280;40783;49.710;8.842;2022-08-03T09:06:19;99092.44;;;28.07;38.32
52927;BME280;40783;49.710;8.842;2022-08-03T09:08:45;99089.41;;;28.08;36.86
52927;BME280;40783;49.710;8.842;2022-08-03T09:11:10;99081.72;;;28.16;37.39
52927;BME280;40783;49.710;8.842;2022-08-03T09:13:36;99094.91;;;28.03;38.50
52927;BME280;40783;49.710;8.842;2022-08-03T09:16:15;99096.84;;;28.13;36.44
52927;BME280;40783;49.710;8.842;2022-08-03T09:18:45;99088.84;;;28.06;36.94
52927;BME280;40783;49.710;8.842;2022-08-03T09:23:49;99089.13;;;27.53;40.37
52927;BME280;40783;49.710;8.842;2022-08-03T09:28:56;99091.34;;;27.92;37.45
52927;BME280;40783;49.710;8.842;2022-08-03T09:31:48;99088.59;;;28.08;37.72
52927;BME280;40783;49.710;8.842;2022-08-03T09:34:24;99082.00;;;28.14;38.44
52927;BME280;40783;49.710;8.842;2022-08-03T09:36:52;99075.63;;;28.44;37.17
52927;BME280;40783;49.710;8.842;2022-08-03T09:39:22;99083.84;;;28.50;37.15
52927;BME280;40783;49.710;8.842;2022-08-03T09:42:12;99079.41;;;28.64;37.12
52927;BME280;40783;49.710;8.842;2022-08-03T09:44:50;99080.22;;;28.65;36.92
52927;BME280;40783;49.710;8.842;2022-08-03T09:47:33;99074.47;;;28.66;36.48
52927;BME280;40783;49.710;8.842;2022-08-03T09:50:08;99075.78;;;28.84;37.37
52927;BME280;40783;49.710;8.842;2022-08-03T09:52:35;99064.78;;;28.90;36.13
52927;BME280;40783;49.710;8.842;2022-08-03T09:55:12;99074.66;;;28.91;37.64
52927;BME280;40783;49.710;8.842;2022-08-03T09:57:38;99083.44;;;29.03;37.26
52927;BME280;40783;49.710;8.842;2022-08-03T10:00:12;99080.19;;;28.91;36.96
52927;BME280;40783;49.710;8.842;2022-08-03T10:02:39;99077.78;;;28.58;38.79
52927;BME280;40783;49.710;8.842;2022-08-03T10:05:07;99072.06;;;28.39;38.23
52927;BME280;40783;49.710;8.842;2022-08-03T10:07:44;99074.81;;;28.44;38.16
52927;BME280;40783;49.710;8.842;2022-08-03T10:10:12;99078.41;;;28.34;40.05
52927;BME280;40783;49.710;8.842;2022-08-03T10:12:40;99073.59;;;28.86;38.50
52927;BME280;40783;49.710;8.842;2022-08-03T10:15:06;99066.91;;;29.03;35.96
52927;BME280;40783;49.710;8.842;2022-08-03T10:17:35;99067.19;;;29.01;35.99
52927;BME280;40783;49.710;8.842;2022-08-03T10:20:06;99060.88;;;29.01;36.49
52927;BME280;40783;49.710;8.842;2022-08-03T10:22:34;99058.28;;;29.20;37.74
52927;BME280;40783;49.710;8.842;2022-08-03T10:25:06;99071.41;;;28.83;39.23
52927;BME280;40783;49.710;8.842;2022-08-03T10:27:39;99062.59;;;28.81;38.47
52927;BME280;40783;49.710;8.842;2022-08-03T10:30:11;99062.31;;;29.33;37.18
52927;BME280;40783;49.710;8.842;2022-08-03T10:32:40;99061.94;;;29.05;36.23
52927;BME280;40783;49.710;8.842;2022-08-03T10:35:20;99061.47;;;28.87;38.38
52927;BME280;40783;49.710;8.842;2022-08-03T10:38:02;99054.34;;;28.81;38.01
52927;BME280;40783;49.710;8.842;2022-08-03T10:40:33;99062.34;;;28.78;36.87
52927;BME280;40783;49.710;8.842;2022-08-03T10:43:09;99051.44;;;29.12;36.14
52927;BME280;40783;49.710;8.842;2022-08-03T10:45:42;99042.91;;;29.09;36.03
52927;BME280;40783;49.710;8.842;2022-08-03T10:48:08;99047.00;;;29.16;35.73
52927;BME280;40783;49.710;8.842;2022-08-03T10:50:34;99042.69;;;29.00;35.81
52927;BME280;40783;49.710;8.842;2022-08-03T10:53:03;99036.16;;;28.85;37.31
52927;BME280;40783;49.710;8.842;2022-08-03T10:55:43;99033.53;;;28.54;39.68
52927;BME280;40783;49.710;8.842;2022-08-03T11:01:09;99024.97;;;29.16;37.17
52927;BME280;40783;49.710;8.842;2022-08-03T11:06:23;99033.59;;;28.23;39.61
52927;BME280;40783;49.710;8.842;2022-08-03T11:11:37;99033.84;;;29.08;37.02
52927;BME280;40783;49.710;8.842;2022-08-03T11:16:42;99029.09;;;29.64;37.17
52927;BME280;40783;49.710;8.842;2022-08-03T11:19:11;99024.88;;;28.87;38.48
52927;BME280;40783;49.710;8.842;2022-08-03T11:29:56;99012.56;;;29.19;38.37
52927;BME280;40783;49.710;8.842;2022-08-03T11:35:10;99019.88;;;29.44;35.96
52927;BME280;40783;49.710;8.842;2022-08-03T11:40:46;99011.19;;;29.91;34.30
52927;BME280;40783;49.710;8.842;2022-08-03T11:50:53;99010.41;;;29.56;36.47
52927;BME280;40783;49.710;8.842;2022-08-03T11:53:19;99006.13;;;29.34;37.40
52927;BME280;40783;49.710;8.842;2022-08-03T11:55:47;99004.59;;;29.17;37.45
52927;BME280;40783;49.710;8.842;2022-08-03T11:58:21;99005.66;;;29.22;36.98
52927;BME280;40783;49.710;8.842;2022-08-03T12:00:48;99000.47;;;29.20;36.78
52927;BME280;40783;49.710;8.842;2022-08-03T12:03:18;99001.69;;;29.43;39.51
52927;BME280;40783;49.710;8.842;2022-08-03T12:08:37;98986.31;;;30.01;34.66
52927;BME280;40783;49.710;8.842;2022-08-03T12:11:03;98985.63;;;30.15;35.11
52927;BME280;40783;49.710;8.842;2022-08-03T12:13:49;98985.59;;;30.20;35.27
52927;BME280;40783;49.710;8.842;2022-08-03T12:16:24;98983.56;;;30.50;34.17
52927;BME280;40783;49.710;8.842;2022-08-03T12:19:01;98977.81;;;30.22;34.03
52927;BME280;40783;49.710;8.842;2022-08-03T12:21:28;98984.63;;;30.05;36.55
52927;BME280;40783;49.710;8.842;2022-08-03T12:24:01;98981.41;;;29.93;37.46
52927;BME280;40783;49.710;8.842;2022-08-03T12:26:28;98976.97;;;29.97;36.46
52927;BME280;40783;49.710;8.842;2022-08-03T12:28:54;98977.47;;;30.04;35.78
52927;BME280;40783;49.710;8.842;2022-08-03T12:31:19;98973.03;;;30.09;34.52
52927;BME280;40783;49.710;8.842;2022-08-03T12:33:58;98973.19;;;29.88;36.29
52927;BME280;40783;49.710;8.842;2022-08-03T12:36:24;98971.44;;;29.97;37.45
52927;BME280;40783;49.710;8.842;2022-08-03T12:38:55;98978.16;;;30.40;35.65
52927;BME280;40783;49.710;8.842;2022-08-03T12:41:41;98975.22;;;31.18;33.40
52927;BME280;40783;49.710;8.842;2022-08-03T12:44:07;98967.69;;;31.23;33.47
52927;BME280;40783;49.710;8.842;2022-08-03T12:49:12;98979.09;;;30.54;35.63
52927;BME280;40783;49.710;8.842;2022-08-03T12:54:22;98974.78;;;30.24;35.59
52927;BME280;40783;49.710;8.842;2022-08-03T12:59:24;98967.59;;;29.98;34.44
52927;BME280;40783;49.710;8.842;2022-08-03T13:01:54;98968.66;;;30.02;35.83
52927;BME280;40783;49.710;8.842;2022-08-03T13:04:33;98967.63;;;30.23;37.09
52927;BME280;40783;49.710;8.842;2022-08-03T13:09:29;98960.97;;;30.24;37.21
52927;BME280;40783;49.710;8.842;2022-08-03T13:12:07;98967.03;;;30.26;35.69
52927;BME280;40783;49.710;8.842;2022-08-03T13:14:35;98971.72;;;30.25;35.78
52927;BME280;40783;49.710;8.842;2022-08-03T13:17:01;98963.78;;;30.43;35.50
52927;BME280;40783;49.710;8.842;2022-08-03T13:19:26;98960.69;;;30.25;35.95
52927;BME280;40783;49.710;8.842;2022-08-03T13:21:52;98959.91;;;30.44;34.85
52927;BME280;40783;49.710;8.842;2022-08-03T13:24:20;98964.38;;;30.64;35.10
52927;BME280;40783;49.710;8.842;2022-08-03T13:26:47;98953.75;;;30.52;34.23
52927;BME280;40783;49.710;8.842;2022-08-03T13:29:16;98954.53;;;30.77;33.24
52927;BME280;40783;49.710;8.842;2022-08-03T13:31:41;98949.84;;;30.77;33.24
52927;BME280;40783;49.710;8.842;2022-08-03T13:34:06;98956.91;;;30.64;34.61
52927;BME280;40783;49.710;8.842;2022-08-03T13:36:32;98947.34;;;30.76;36.50
52927;BME280;40783;49.710;8.842;2022-08-03T13:38:57;98950.22;;;30.71;35.27
52927;BME280;40783;49.710;8.842;2022-08-03T13:41:25;98947.53;;;30.66;34.82
52927;BME280;40783;49.710;8.842;2022-08-03T13:43:53;98952.13;;;30.89;32.46
52927;BME280;40783;49.710;8.842;2022-08-03T13:46:21;98951.25;;;30.75;33.69
52927;BME280;40783;49.710;8.842;2022-08-03T13:48:47;98948.34;;;30.42;35.40
52927;BME280;40783;49.710;8.842;2022-08-03T13:51:15;98942.94;;;30.31;34.53
52927;BME280;40783;49.710;8.842;2022-08-03T13:53:40;98944.84;;;30.60;32.79
52927;BME280;40783;49.710;8.842;2022-08-03T13:56:06;98936.09;;;30.72;34.01
52927;BME280;40783;49.710;8.842;2022-08-03T13:58:31;98932.16;;;30.78;33.38
52927;BME280;40783;49.710;8.842;2022-08-03T14:00:56;98928.28;;;30.60;34.09
52927;BME280;40783;49.710;8.842;2022-08-03T14:03:24;98936.03;;;30.97;33.15
52927;BME280;40783;49.710;8.842;2022-08-03T14:05:49;98929.22;;;31.08;33.43
52927;BME280;40783;49.710;8.842;2022-08-03T14:08:15;98924.91;;;31.02;33.60
52927;BME280;40783;49.710;8.842;2022-08-03T14:10:43;98926.06;;;31.34;32.92
52927;BME280;40783;49.710;8.842;2022-08-03T14:13:12;98916.56;;;31.40;33.02
52927;BME280;40783;49.710;8.842;2022-08-03T14:15:39;98922.94;;;31.02;33.91